Nikiforos — D5IW7 — position and weather

sailwx.info

Track history (hours):
 
Tides and Currents Weather Stations Pressure Air Temp Water Temp Dewpoint Dewpoint Depression Visibility Wind Speed Wind Dir Waves Ship Positions

Nikiforos

Last reported at 2017-Sep-30 00:28 UTC. Time now 2017-Oct-20 05:27 UTC.
Position N 36°24' E 014°47'.
Warning: this ship's position is 20 days out of date.

Length 186 m; draft 9.8 m.

Type: Cargo ship. MMSI: 636017011.

Date/timePositionNaut miles runAvg speedWind from/ knotsBaromVisibWave heightAir tempDewpointWater temp
2017-Sep-30 00:28N 36°24' E 014°47'911.7
2017-Sep-29 23:44N 36°24' E 014°36'311.9
2017-Sep-29 23:30N 36°24' E 014°33'611.8
2017-Sep-29 23:00N 36°24' E 014°26'611.9
2017-Sep-29 22:29N 36°25' E 014°18'612.0
2017-Sep-29 22:00N 36°25' E 014°11'611.9
2017-Sep-29 21:30N 36°25' E 014°03'611.6
2017-Sep-29 21:00N 36°26' E 013°56'611.8
2017-Sep-29 20:30N 36°28' E 013°50'2811.7
2017-Sep-29 18:07N 36°39' E 013°18'411.7
2017-Sep-29 17:44N 36°41' E 013°12'  
2017-Sep-26 11:07N 36°05' W 005°18'110.4
2017-Sep-26 11:00N 36°05' W 005°19'4 6.8
2017-Sep-26 10:24N 36°08' W 005°23'0 0.1
2017-Sep-26 05:32N 36°08' W 005°22'0 0.1
2017-Sep-26 05:29N 36°08' W 005°22'0 0.1
2017-Sep-26 04:59N 36°08' W 005°22'0 0.0
2017-Sep-26 04:05N 36°08' W 005°22'0 0.1
2017-Sep-26 03:59N 36°08' W 005°22'0 0.1
2017-Sep-26 03:29N 36°08' W 005°22'0 0.2
2017-Sep-26 02:35N 36°08' W 005°22'0 0.3
2017-Sep-26 02:29N 36°08' W 005°22'0 0.3
2017-Sep-26 02:00N 36°08' W 005°22'2 4.7
2017-Sep-26 01:30N 36°06' W 005°22'1 1.9
2017-Sep-26 01:00N 36°05' W 005°21'1 1.5
2017-Sep-26 00:30N 36°05' W 005°20'2 3.6
2017-Sep-26 00:00N 36°05' W 005°18'2 4.8
2017-Sep-25 23:30N 36°05' W 005°15'1 1.7
2017-Sep-25 23:00N 36°06' W 005°14'0 1.0
2017-Sep-25 22:30N 36°07' W 005°14'0 0.8
2017-Sep-25 22:00N 36°07' W 005°14'1 2.4
2017-Sep-25 21:30N 36°08' W 005°14'3 6.5
2017-Sep-25 21:00N 36°11' W 005°12'0 0.4
2017-Sep-25 20:30N 36°11' W 005°11'2 4.1
2017-Sep-25 20:00N 36°11' W 005°09'1 0.3
2017-Sep-25 18:13N 36°10' W 005°09'0 1.3
2017-Sep-25 17:57N 36°10' W 005°09'1 1.2
2017-Sep-25 17:15N 36°10' W 005°10'0 1.1
2017-Sep-25 16:55N 36°09' W 005°10'0 1.1
2017-Sep-25 16:30N 36°09' W 005°10'2 5.0
2017-Sep-25 16:00N 36°06' W 005°10'3 6.0
2017-Sep-25 15:30N 36°04' W 005°11'4 8.8
2017-Sep-25 15:00N 36°00' W 005°15'612.3
2017-Sep-25 14:30N 35°58' W 005°22'611.8
2017-Sep-25 14:00N 35°57' W 005°29'7810.9
2017-Sep-25 06:51N 35°49' W 007°05'410.2
2017-Sep-25 06:27N 35°49' W 007°10'121 9.8
2017-Sep-24 18:03N 34°04' W 008°24'310.5
2017-Sep-24 17:47N 34°02' W 008°26'1010.3
2017-Sep-24 16:51N 33°53' W 008°32'3110.4
2017-Sep-24 13:51N 33°30' W 008°57'410.4
2017-Sep-24 13:30N 33°28' W 009°00'3410.5
2017-Sep-24 10:15N 33°03' W 009°28'610.6
2017-Sep-24 09:42N 32°58' W 009°33'310.6
2017-Sep-24 09:27N 32°57' W 009°35'510.8
2017-Sep-24 09:00N 32°53' W 009°39'510.5
2017-Sep-24 08:30N 32°49' W 009°43'5 8.9
2017-Sep-24 07:57N 32°47' W 009°48'510.8
2017-Sep-24 07:29N 32°43' W 009°52'1311.0
2017-Sep-24 06:18N 32°34' W 010°03'410.9
2017-Sep-24 05:58N 32°31' W 010°06'811.0
2017-Sep-24 05:14N 32°25' W 010°12'810.6
2017-Sep-24 04:27N 32°19' W 010°19'710.7
2017-Sep-24 03:46N 32°14' W 010°25'1710.4
2017-Sep-24 02:08N 32°01' W 010°39'210.1
2017-Sep-24 01:59N 32°00' W 010°40'510.1
2017-Sep-24 01:28N 31°56' W 010°43'510.1
2017-Sep-24 01:00N 31°52' W 010°46'510.1
2017-Sep-24 00:30N 31°48' W 010°49'510.0
2017-Sep-24 00:00N 31°44' W 010°53'5 9.7
2017-Sep-23 23:30N 31°39' W 010°56'31 9.8
2017-Sep-23 20:22N 31°14' W 011°16'  
Track history (hours):
 
Tides and Currents Weather Stations Pressure Air Temp Water Temp Dewpoint Dewpoint Depression Visibility Wind Speed Wind Dir Waves Ship Positions

Nikiforos

Last reported at 2017-Sep-30 00:28 UTC. Time now 2017-Oct-20 05:27 UTC.
Position N 36°24' E 014°47'.
Warning: this ship's position is 20 days out of date.

Length 186 m; draft 9.8 m.

Type: Cargo ship. MMSI: 636017011.

Date/timePositionNaut miles runAvg speedWind from/ knotsBaromVisibWave heightAir tempDewpointWater temp
2017-Sep-30 00:28N 36°24' E 014°47'911.7
2017-Sep-29 23:44N 36°24' E 014°36'311.9
2017-Sep-29 23:30N 36°24' E 014°33'611.8
2017-Sep-29 23:00N 36°24' E 014°26'611.9
2017-Sep-29 22:29N 36°25' E 014°18'612.0
2017-Sep-29 22:00N 36°25' E 014°11'611.9
2017-Sep-29 21:30N 36°25' E 014°03'611.6
2017-Sep-29 21:00N 36°26' E 013°56'611.8
2017-Sep-29 20:30N 36°28' E 013°50'2811.7
2017-Sep-29 18:07N 36°39' E 013°18'411.7
2017-Sep-29 17:44N 36°41' E 013°12'  
2017-Sep-26 11:07N 36°05' W 005°18'110.4
2017-Sep-26 11:00N 36°05' W 005°19'4 6.8
2017-Sep-26 10:24N 36°08' W 005°23'0 0.1
2017-Sep-26 05:32N 36°08' W 005°22'0 0.1
2017-Sep-26 05:29N 36°08' W 005°22'0 0.1
2017-Sep-26 04:59N 36°08' W 005°22'0 0.0
2017-Sep-26 04:05N 36°08' W 005°22'0 0.1
2017-Sep-26 03:59N 36°08' W 005°22'0 0.1
2017-Sep-26 03:29N 36°08' W 005°22'0 0.2
2017-Sep-26 02:35N 36°08' W 005°22'0 0.3
2017-Sep-26 02:29N 36°08' W 005°22'0 0.3
2017-Sep-26 02:00N 36°08' W 005°22'2 4.7
2017-Sep-26 01:30N 36°06' W 005°22'1 1.9
2017-Sep-26 01:00N 36°05' W 005°21'1 1.5
2017-Sep-26 00:30N 36°05' W 005°20'2 3.6
2017-Sep-26 00:00N 36°05' W 005°18'2 4.8
2017-Sep-25 23:30N 36°05' W 005°15'1 1.7
2017-Sep-25 23:00N 36°06' W 005°14'0 1.0
2017-Sep-25 22:30N 36°07' W 005°14'0 0.8
2017-Sep-25 22:00N 36°07' W 005°14'1 2.4
2017-Sep-25 21:30N 36°08' W 005°14'3 6.5
2017-Sep-25 21:00N 36°11' W 005°12'0 0.4
2017-Sep-25 20:30N 36°11' W 005°11'2 4.1
2017-Sep-25 20:00N 36°11' W 005°09'1 0.3
2017-Sep-25 18:13N 36°10' W 005°09'0 1.3
2017-Sep-25 17:57N 36°10' W 005°09'1 1.2
2017-Sep-25 17:15N 36°10' W 005°10'0 1.1
2017-Sep-25 16:55N 36°09' W 005°10'0 1.1
2017-Sep-25 16:30N 36°09' W 005°10'2 5.0
2017-Sep-25 16:00N 36°06' W 005°10'3 6.0
2017-Sep-25 15:30N 36°04' W 005°11'4 8.8
2017-Sep-25 15:00N 36°00' W 005°15'612.3
2017-Sep-25 14:30N 35°58' W 005°22'611.8
2017-Sep-25 14:00N 35°57' W 005°29'7810.9
2017-Sep-25 06:51N 35°49' W 007°05'410.2
2017-Sep-25 06:27N 35°49' W 007°10'121 9.8
2017-Sep-24 18:03N 34°04' W 008°24'310.5
2017-Sep-24 17:47N 34°02' W 008°26'1010.3
2017-Sep-24 16:51N 33°53' W 008°32'3110.4
2017-Sep-24 13:51N 33°30' W 008°57'410.4
2017-Sep-24 13:30N 33°28' W 009°00'3410.5
2017-Sep-24 10:15N 33°03' W 009°28'610.6
2017-Sep-24 09:42N 32°58' W 009°33'310.6
2017-Sep-24 09:27N 32°57' W 009°35'510.8
2017-Sep-24 09:00N 32°53' W 009°39'510.5
2017-Sep-24 08:30N 32°49' W 009°43'5 8.9
2017-Sep-24 07:57N 32°47' W 009°48'510.8
2017-Sep-24 07:29N 32°43' W 009°52'1311.0
2017-Sep-24 06:18N 32°34' W 010°03'410.9
2017-Sep-24 05:58N 32°31' W 010°06'811.0
2017-Sep-24 05:14N 32°25' W 010°12'810.6
2017-Sep-24 04:27N 32°19' W 010°19'710.7
2017-Sep-24 03:46N 32°14' W 010°25'1710.4
2017-Sep-24 02:08N 32°01' W 010°39'210.1
2017-Sep-24 01:59N 32°00' W 010°40'510.1
2017-Sep-24 01:28N 31°56' W 010°43'510.1
2017-Sep-24 01:00N 31°52' W 010°46'510.1
2017-Sep-24 00:30N 31°48' W 010°49'510.0
2017-Sep-24 00:00N 31°44' W 010°53'5 9.7
2017-Sep-23 23:30N 31°39' W 010°56'31 9.8
2017-Sep-23 20:22N 31°14' W 011°16'  

Dump ship's entire track history